Tefft, Indiana
Current Conditions -  °F | °C
As of 6:56 AM on Friday 31 Oct 2014 (Local Time) from KVPZ Reporting Station
Light Rain Light Rain  
Wind Chill: 33°   Ceiling: 3900
Heat Index: 40°   Visibility: 10mi
Dew Point: 35°   Wind: 10mph
Humidity: 83%   Direction: 340°NNW
Pressure: 30.01"   Gusts: 20mph
Location:  41.2°N, 86.97°W
Report Text: KVPZ 311156Z AUTO 34009G17KT 10SM -RA FEW027 OVC039 04/02 A3001 RMK AO2 SLP168 P0001 60006 70006 T00440017 10072 20039 52006 TSNO
Loading
Personal Weather Stations






























Interactive Weather Map
Tropical Storm Tracking
New forecast layout! Learn more

10-Day Weather Forecast

Advertisements
Track Severe Weather on mobile